sensor_id;sensor_type;location;lat;lon;timestamp;pressure;altitude;pressure_sealevel;temperature;humidity
61488;BME280;47351;53.326;-6.298;2023-04-09T00:03:08;101689.91;;;9.91;57.86
61488;BME280;47351;53.326;-6.298;2023-04-09T00:06:19;101688.42;;;9.88;58.02
61488;BME280;47351;53.326;-6.298;2023-04-09T00:09:30;101680.37;;;9.84;58.17
61488;BME280;47351;53.326;-6.298;2023-04-09T00:12:41;101669.13;;;9.80;58.32
61488;BME280;47351;53.326;-6.298;2023-04-09T00:15:45;101655.98;;;9.75;58.40
61488;BME280;47351;53.326;-6.298;2023-04-09T00:18:57;101639.38;;;9.71;58.42
61488;BME280;47351;53.326;-6.298;2023-04-09T00:22:07;101633.05;;;9.70;57.87
61488;BME280;47351;53.326;-6.298;2023-04-09T00:25:19;101626.31;;;9.72;57.09
61488;BME280;47351;53.326;-6.298;2023-04-09T00:28:30;101628.79;;;9.74;57.34
61488;BME280;47351;53.326;-6.298;2023-04-09T00:31:41;101627.48;;;9.75;57.58
61488;BME280;47351;53.326;-6.298;2023-04-09T00:34:52;101623.43;;;9.74;58.23
61488;BME280;47351;53.326;-6.298;2023-04-09T00:37:58;101627.70;;;9.72;58.71
61488;BME280;47351;53.326;-6.298;2023-04-09T00:41:09;101638.05;;;9.70;59.20
61488;BME280;47351;53.326;-6.298;2023-04-09T00:44:19;101633.74;;;9.68;59.61
61488;BME280;47351;53.326;-6.298;2023-04-09T00:47:16;101637.54;;;9.66;59.88
61488;BME280;47351;53.326;-6.298;2023-04-09T00:50:27;101633.19;;;9.64;59.99
61488;BME280;47351;53.326;-6.298;2023-04-09T00:53:37;101638.41;;;9.64;60.20
61488;BME280;47351;53.326;-6.298;2023-04-09T00:56:37;101640.48;;;9.62;60.48
61488;BME280;47351;53.326;-6.298;2023-04-09T00:59:43;101646.59;;;9.62;60.74
61488;BME280;47351;53.326;-6.298;2023-04-09T01:02:55;101630.34;;;9.60;61.04
61488;BME280;47351;53.326;-6.298;2023-04-09T01:06:02;101628.38;;;9.58;60.95
61488;BME280;47351;53.326;-6.298;2023-04-09T01:09:16;101633.17;;;9.56;61.16
61488;BME280;47351;53.326;-6.298;2023-04-09T01:12:20;101624.41;;;9.54;61.13
61488;BME280;47351;53.326;-6.298;2023-04-09T01:15:35;101615.17;;;9.52;60.89
61488;BME280;47351;53.326;-6.298;2023-04-09T01:18:49;101618.77;;;9.51;60.47
61488;BME280;47351;53.326;-6.298;2023-04-09T01:22:02;101608.71;;;9.50;60.57
61488;BME280;47351;53.326;-6.298;2023-04-09T01:25:12;101601.67;;;9.49;60.52
61488;BME280;47351;53.326;-6.298;2023-04-09T01:28:15;101607.58;;;9.49;60.61
61488;BME280;47351;53.326;-6.298;2023-04-09T01:31:28;101615.66;;;9.48;60.84
61488;BME280;47351;53.326;-6.298;2023-04-09T01:34:34;101605.84;;;9.48;61.01
61488;BME280;47351;53.326;-6.298;2023-04-09T01:37:47;101598.41;;;9.47;61.03
61488;BME280;47351;53.326;-6.298;2023-04-09T01:40:59;101597.94;;;9.47;60.75
61488;BME280;47351;53.326;-6.298;2023-04-09T01:44:12;101602.35;;;9.47;60.31
61488;BME280;47351;53.326;-6.298;2023-04-09T01:47:23;101606.12;;;9.49;59.95
61488;BME280;47351;53.326;-6.298;2023-04-09T01:51:28;101606.27;;;9.52;59.80
61488;BME280;47351;53.326;-6.298;2023-04-09T01:54:36;101595.91;;;9.52;59.90
61488;BME280;47351;53.326;-6.298;2023-04-09T01:57:37;101588.64;;;9.52;59.69
61488;BME280;47351;53.326;-6.298;2023-04-09T02:00:41;101583.11;;;9.51;59.82
61488;BME280;47351;53.326;-6.298;2023-04-09T02:03:50;101569.89;;;9.50;60.18
61488;BME280;47351;53.326;-6.298;2023-04-09T02:06:56;101553.40;;;9.49;60.34
61488;BME280;47351;53.326;-6.298;2023-04-09T02:10:09;101540.89;;;9.47;60.37
61488;BME280;47351;53.326;-6.298;2023-04-09T02:13:22;101535.73;;;9.47;60.19
61488;BME280;47351;53.326;-6.298;2023-04-09T02:16:27;101528.55;;;9.46;60.23
61488;BME280;47351;53.326;-6.298;2023-04-09T02:19:56;101538.33;;;9.44;60.70
61488;BME280;47351;53.326;-6.298;2023-04-09T02:23:06;101545.45;;;9.40;60.99
61488;BME280;47351;53.326;-6.298;2023-04-09T02:26:20;101552.87;;;9.36;61.37
61488;BME280;47351;53.326;-6.298;2023-04-09T02:29:31;101546.07;;;9.33;61.76
61488;BME280;47351;53.326;-6.298;2023-04-09T02:32:43;101540.16;;;9.29;62.01
61488;BME280;47351;53.326;-6.298;2023-04-09T02:35:49;101542.14;;;9.24;62.44
61488;BME280;47351;53.326;-6.298;2023-04-09T02:38:53;101542.45;;;9.20;62.61
61488;BME280;47351;53.326;-6.298;2023-04-09T02:41:58;101541.19;;;9.18;62.77
61488;BME280;47351;53.326;-6.298;2023-04-09T02:45:09;101528.82;;;9.17;62.84
61488;BME280;47351;53.326;-6.298;2023-04-09T02:48:06;101527.48;;;9.16;62.70
61488;BME280;47351;53.326;-6.298;2023-04-09T02:51:16;101521.38;;;9.17;62.63
61488;BME280;47351;53.326;-6.298;2023-04-09T02:54:27;101530.45;;;9.17;62.64
61488;BME280;47351;53.326;-6.298;2023-04-09T02:57:38;101527.66;;;9.16;62.83
61488;BME280;47351;53.326;-6.298;2023-04-09T03:00:49;101525.64;;;9.15;63.05
61488;BME280;47351;53.326;-6.298;2023-04-09T03:04:00;101517.92;;;9.14;63.18
61488;BME280;47351;53.326;-6.298;2023-04-09T03:07:11;101517.05;;;9.13;63.03
61488;BME280;47351;53.326;-6.298;2023-04-09T03:10:23;101512.21;;;9.14;63.18
61488;BME280;47351;53.326;-6.298;2023-04-09T03:13:33;101500.69;;;9.11;63.32
61488;BME280;47351;53.326;-6.298;2023-04-09T03:16:44;101493.59;;;9.09;63.55
61488;BME280;47351;53.326;-6.298;2023-04-09T03:19:57;101489.15;;;9.06;63.81
61488;BME280;47351;53.326;-6.298;2023-04-09T03:23:06;101489.64;;;9.04;63.98
61488;BME280;47351;53.326;-6.298;2023-04-09T03:26:17;101481.48;;;9.04;64.01
61488;BME280;47351;53.326;-6.298;2023-04-09T03:29:28;101477.10;;;9.03;64.17
61488;BME280;47351;53.326;-6.298;2023-04-09T03:32:29;101473.83;;;9.02;64.39
61488;BME280;47351;53.326;-6.298;2023-04-09T03:35:40;101474.42;;;9.01;64.50
61488;BME280;47351;53.326;-6.298;2023-04-09T03:38:51;101466.59;;;9.01;64.66
61488;BME280;47351;53.326;-6.298;2023-04-09T03:42:05;101458.63;;;9.01;64.78
61488;BME280;47351;53.326;-6.298;2023-04-09T03:45:16;101462.93;;;9.00;64.88
61488;BME280;47351;53.326;-6.298;2023-04-09T03:48:27;101454.89;;;9.01;65.11
61488;BME280;47351;53.326;-6.298;2023-04-09T03:51:38;101447.24;;;9.00;65.32
61488;BME280;47351;53.326;-6.298;2023-04-09T03:54:49;101440.19;;;9.00;65.61
61488;BME280;47351;53.326;-6.298;2023-04-09T03:58:00;101440.83;;;9.01;65.83
61488;BME280;47351;53.326;-6.298;2023-04-09T04:01:10;101435.20;;;9.02;65.92
61488;BME280;47351;53.326;-6.298;2023-04-09T04:04:21;101433.95;;;9.04;66.08
61488;BME280;47351;53.326;-6.298;2023-04-09T04:07:32;101438.67;;;9.07;66.30
61488;BME280;47351;53.326;-6.298;2023-04-09T04:10:43;101432.27;;;9.11;66.38
61488;BME280;47351;53.326;-6.298;2023-04-09T04:13:54;101432.46;;;9.15;66.52
61488;BME280;47351;53.326;-6.298;2023-04-09T04:17:06;101420.28;;;9.18;66.74
61488;BME280;47351;53.326;-6.298;2023-04-09T04:20:16;101413.02;;;9.19;67.07
61488;BME280;47351;53.326;-6.298;2023-04-09T04:23:42;101399.25;;;9.18;67.20
61488;BME280;47351;53.326;-6.298;2023-04-09T04:26:59;101402.52;;;9.16;67.39
61488;BME280;47351;53.326;-6.298;2023-04-09T04:30:10;101404.52;;;9.11;67.75
61488;BME280;47351;53.326;-6.298;2023-04-09T04:33:21;101407.66;;;9.08;67.72
61488;BME280;47351;53.326;-6.298;2023-04-09T04:36:31;101398.27;;;9.05;67.83
61488;BME280;47351;53.326;-6.298;2023-04-09T04:39:41;101390.50;;;9.02;68.04
61488;BME280;47351;53.326;-6.298;2023-04-09T04:42:47;101381.80;;;9.00;68.20
61488;BME280;47351;53.326;-6.298;2023-04-09T04:45:51;101384.23;;;8.98;68.25
61488;BME280;47351;53.326;-6.298;2023-04-09T04:49:02;101388.15;;;8.96;68.41
61488;BME280;47351;53.326;-6.298;2023-04-09T04:52:13;101393.29;;;8.95;68.48
61488;BME280;47351;53.326;-6.298;2023-04-09T04:55:25;101382.55;;;8.93;68.52
61488;BME280;47351;53.326;-6.298;2023-04-09T04:58:29;101382.65;;;8.92;68.65
61488;BME280;47351;53.326;-6.298;2023-04-09T05:01:39;101387.95;;;8.90;68.80
61488;BME280;47351;53.326;-6.298;2023-04-09T05:04:42;101375.61;;;8.89;69.18
61488;BME280;47351;53.326;-6.298;2023-04-09T05:07:53;101369.73;;;8.91;69.31
61488;BME280;47351;53.326;-6.298;2023-04-09T05:10:50;101361.14;;;8.96;69.37
61488;BME280;47351;53.326;-6.298;2023-04-09T05:14:04;101354.35;;;9.00;69.26
61488;BME280;47351;53.326;-6.298;2023-04-09T05:17:15;101347.91;;;9.03;69.24
61488;BME280;47351;53.326;-6.298;2023-04-09T05:20:20;101342.58;;;9.04;69.37
61488;BME280;47351;53.326;-6.298;2023-04-09T05:23:34;101332.38;;;9.07;69.61
61488;BME280;47351;53.326;-6.298;2023-04-09T05:26:28;101326.06;;;9.08;69.57
61488;BME280;47351;53.326;-6.298;2023-04-09T05:29:39;101325.52;;;9.08;69.77
61488;BME280;47351;53.326;-6.298;2023-04-09T05:32:38;101330.42;;;9.07;69.74
61488;BME280;47351;53.326;-6.298;2023-04-09T05:35:49;101330.76;;;9.05;69.88
61488;BME280;47351;53.326;-6.298;2023-04-09T05:39:00;101338.15;;;9.04;69.96
61488;BME280;47351;53.326;-6.298;2023-04-09T05:42:10;101342.59;;;9.02;70.04
61488;BME280;47351;53.326;-6.298;2023-04-09T05:45:22;101340.83;;;9.00;70.12
61488;BME280;47351;53.326;-6.298;2023-04-09T05:48:22;101332.70;;;8.97;70.27
61488;BME280;47351;53.326;-6.298;2023-04-09T05:51:22;101336.05;;;8.96;70.39
61488;BME280;47351;53.326;-6.298;2023-04-09T05:54:34;101339.34;;;8.95;70.45
61488;BME280;47351;53.326;-6.298;2023-04-09T05:57:39;101339.00;;;8.94;70.52
61488;BME280;47351;53.326;-6.298;2023-04-09T06:00:40;101333.44;;;8.95;70.62
61488;BME280;47351;53.326;-6.298;2023-04-09T06:03:54;101332.95;;;8.97;70.67
61488;BME280;47351;53.326;-6.298;2023-04-09T06:06:55;101339.14;;;8.99;70.51
61488;BME280;47351;53.326;-6.298;2023-04-09T06:10:01;101338.23;;;9.03;70.67
61488;BME280;47351;53.326;-6.298;2023-04-09T06:13:03;101338.30;;;9.09;70.74
61488;BME280;47351;53.326;-6.298;2023-04-09T06:16:14;101346.02;;;9.18;70.67
61488;BME280;47351;53.326;-6.298;2023-04-09T06:19:25;101348.80;;;9.27;70.62
61488;BME280;47351;53.326;-6.298;2023-04-09T06:22:29;101355.10;;;9.37;70.48
61488;BME280;47351;53.326;-6.298;2023-04-09T06:25:25;101348.33;;;9.49;70.39
61488;BME280;47351;53.326;-6.298;2023-04-09T06:28:31;101344.60;;;9.61;70.22
61488;BME280;47351;53.326;-6.298;2023-04-09T06:31:42;101348.91;;;9.74;69.90
61488;BME280;47351;53.326;-6.298;2023-04-09T06:34:53;101347.39;;;9.85;69.53
61488;BME280;47351;53.326;-6.298;2023-04-09T06:38:04;101348.55;;;9.90;69.40
61488;BME280;47351;53.326;-6.298;2023-04-09T06:41:15;101341.91;;;9.94;69.25
61488;BME280;47351;53.326;-6.298;2023-04-09T06:44:26;101335.95;;;9.95;69.13
61488;BME280;47351;53.326;-6.298;2023-04-09T06:47:18;101334.43;;;9.94;69.22
61488;BME280;47351;53.326;-6.298;2023-04-09T06:50:18;101330.09;;;9.95;69.25
61488;BME280;47351;53.326;-6.298;2023-04-09T06:53:29;101320.86;;;9.95;69.22
61488;BME280;47351;53.326;-6.298;2023-04-09T06:56:40;101320.82;;;9.93;69.55
61488;BME280;47351;53.326;-6.298;2023-04-09T06:59:51;101312.11;;;9.93;69.80
61488;BME280;47351;53.326;-6.298;2023-04-09T07:03:00;101307.45;;;9.93;70.04
61488;BME280;47351;53.326;-6.298;2023-04-09T07:06:12;101303.65;;;9.94;70.09
61488;BME280;47351;53.326;-6.298;2023-04-09T07:09:22;101298.67;;;9.95;70.20
61488;BME280;47351;53.326;-6.298;2023-04-09T07:12:27;101280.60;;;9.98;70.29
61488;BME280;47351;53.326;-6.298;2023-04-09T07:15:32;101281.77;;;10.05;70.02
61488;BME280;47351;53.326;-6.298;2023-04-09T07:18:42;101269.20;;;10.15;70.04
61488;BME280;47351;53.326;-6.298;2023-04-09T07:21:52;101261.86;;;10.26;69.75
61488;BME280;47351;53.326;-6.298;2023-04-09T07:24:46;101249.79;;;10.34;69.74
61488;BME280;47351;53.326;-6.298;2023-04-09T07:27:56;101246.11;;;10.47;69.55
61488;BME280;47351;53.326;-6.298;2023-04-09T07:31:07;101240.06;;;10.62;69.32
61488;BME280;47351;53.326;-6.298;2023-04-09T07:34:03;101232.33;;;10.76;69.11
61488;BME280;47351;53.326;-6.298;2023-04-09T07:37:14;101221.61;;;10.85;68.75
61488;BME280;47351;53.326;-6.298;2023-04-09T07:40:25;101211.20;;;10.97;68.32
61488;BME280;47351;53.326;-6.298;2023-04-09T07:43:16;101203.40;;;11.20;68.00
61488;BME280;47351;53.326;-6.298;2023-04-09T07:46:19;101191.22;;;11.46;67.24
61488;BME280;47351;53.326;-6.298;2023-04-09T07:49:27;101190.34;;;11.69;66.51
61488;BME280;47351;53.326;-6.298;2023-04-09T07:52:38;101192.08;;;11.96;66.08
61488;BME280;47351;53.326;-6.298;2023-04-09T07:55:40;101194.70;;;12.18;65.50
61488;BME280;47351;53.326;-6.298;2023-04-09T07:58:39;101186.11;;;12.34;64.80
61488;BME280;47351;53.326;-6.298;2023-04-09T08:01:36;101176.77;;;12.36;64.29
61488;BME280;47351;53.326;-6.298;2023-04-09T08:04:32;101186.21;;;12.50;64.18
61488;BME280;47351;53.326;-6.298;2023-04-09T08:07:23;101191.48;;;12.56;64.32
61488;BME280;47351;53.326;-6.298;2023-04-09T08:10:33;101198.64;;;12.42;64.06
61488;BME280;47351;53.326;-6.298;2023-04-09T08:13:44;101199.86;;;12.27;64.17
61488;BME280;47351;53.326;-6.298;2023-04-09T08:16:46;101189.52;;;12.18;64.16
61488;BME280;47351;53.326;-6.298;2023-04-09T08:19:49;101191.77;;;12.12;63.98
61488;BME280;47351;53.326;-6.298;2023-04-09T08:22:48;101187.96;;;12.16;63.88
61488;BME280;47351;53.326;-6.298;2023-04-09T08:25:59;101189.04;;;12.25;63.98
61488;BME280;47351;53.326;-6.298;2023-04-09T08:28:49;101202.10;;;12.26;64.19
61488;BME280;47351;53.326;-6.298;2023-04-09T08:32:01;101188.44;;;12.28;64.19
61488;BME280;47351;53.326;-6.298;2023-04-09T08:35:02;101180.20;;;12.34;64.03
61488;BME280;47351;53.326;-6.298;2023-04-09T08:37:59;101184.34;;;12.35;63.75
61488;BME280;47351;53.326;-6.298;2023-04-09T08:41:14;101198.97;;;12.34;63.86
61488;BME280;47351;53.326;-6.298;2023-04-09T08:44:27;101201.80;;;12.33;63.93
61488;BME280;47351;53.326;-6.298;2023-04-09T08:47:22;101203.00;;;12.35;64.08
61488;BME280;47351;53.326;-6.298;2023-04-09T08:50:19;101209.17;;;12.39;63.98
61488;BME280;47351;53.326;-6.298;2023-04-09T08:53:22;101204.32;;;12.45;63.54
61488;BME280;47351;53.326;-6.298;2023-04-09T08:56:16;101202.10;;;12.45;63.12
61488;BME280;47351;53.326;-6.298;2023-04-09T08:59:12;101204.75;;;12.46;63.06
61488;BME280;47351;53.326;-6.298;2023-04-09T09:02:13;101196.13;;;12.53;63.19
61488;BME280;47351;53.326;-6.298;2023-04-09T09:05:05;101187.41;;;12.61;62.94
61488;BME280;47351;53.326;-6.298;2023-04-09T09:08:01;101178.63;;;12.68;62.88
61488;BME280;47351;53.326;-6.298;2023-04-09T09:11:12;101175.36;;;12.84;62.92
61488;BME280;47351;53.326;-6.298;2023-04-09T09:14:15;101171.23;;;12.90;62.34
61488;BME280;47351;53.326;-6.298;2023-04-09T09:17:09;101178.73;;;12.91;62.08
61488;BME280;47351;53.326;-6.298;2023-04-09T09:20:21;101173.76;;;12.92;62.11
61488;BME280;47351;53.326;-6.298;2023-04-09T09:23:34;101177.88;;;12.96;61.94
61488;BME280;47351;53.326;-6.298;2023-04-09T09:26:35;101171.79;;;12.97;61.88
61488;BME280;47351;53.326;-6.298;2023-04-09T09:29:43;101172.58;;;13.00;61.74
61488;BME280;47351;53.326;-6.298;2023-04-09T09:32:36;101175.88;;;13.03;61.80
61488;BME280;47351;53.326;-6.298;2023-04-09T09:35:27;101173.34;;;13.06;61.59
61488;BME280;47351;53.326;-6.298;2023-04-09T09:38:30;101178.24;;;13.06;61.26
61488;BME280;47351;53.326;-6.298;2023-04-09T09:41:35;101174.03;;;13.03;61.29
61488;BME280;47351;53.326;-6.298;2023-04-09T09:44:35;101176.88;;;13.02;61.47
61488;BME280;47351;53.326;-6.298;2023-04-09T09:47:38;101174.52;;;12.98;61.52
61488;BME280;47351;53.326;-6.298;2023-04-09T09:50:35;101172.11;;;12.92;61.64
61488;BME280;47351;53.326;-6.298;2023-04-09T09:53:40;101170.39;;;12.80;62.04
61488;BME280;47351;53.326;-6.298;2023-04-09T09:56:44;101159.89;;;12.64;62.19
61488;BME280;47351;53.326;-6.298;2023-04-09T09:59:49;101165.04;;;12.50;62.64
61488;BME280;47351;53.326;-6.298;2023-04-09T10:02:52;101160.98;;;12.41;62.98
61488;BME280;47351;53.326;-6.298;2023-04-09T10:05:55;101157.45;;;12.29;63.25
61488;BME280;47351;53.326;-6.298;2023-04-09T10:08:53;101156.23;;;12.20;63.52
61488;BME280;47351;53.326;-6.298;2023-04-09T10:12:06;101154.59;;;12.13;63.81
61488;BME280;47351;53.326;-6.298;2023-04-09T10:14:59;101151.72;;;12.10;64.03
61488;BME280;47351;53.326;-6.298;2023-04-09T10:17:52;101149.83;;;12.12;64.23
61488;BME280;47351;53.326;-6.298;2023-04-09T10:20:45;101139.27;;;12.16;64.37
61488;BME280;47351;53.326;-6.298;2023-04-09T10:23:39;101132.91;;;12.20;64.36
61488;BME280;47351;53.326;-6.298;2023-04-09T10:26:31;101126.19;;;12.28;64.35
61488;BME280;47351;53.326;-6.298;2023-04-09T10:29:27;101122.95;;;12.40;64.29
61488;BME280;47351;53.326;-6.298;2023-04-09T10:32:18;101115.77;;;12.51;64.04
61488;BME280;47351;53.326;-6.298;2023-04-09T10:35:11;101107.88;;;12.61;63.99
61488;BME280;47351;53.326;-6.298;2023-04-09T10:38:02;101102.77;;;12.76;64.05
61488;BME280;47351;53.326;-6.298;2023-04-09T10:40:52;101095.92;;;12.91;63.96
61488;BME280;47351;53.326;-6.298;2023-04-09T10:43:45;101089.58;;;13.07;63.73
61488;BME280;47351;53.326;-6.298;2023-04-09T10:46:36;101080.77;;;13.17;63.38
61488;BME280;47351;53.326;-6.298;2023-04-09T10:49:35;101077.43;;;13.28;63.56
61488;BME280;47351;53.326;-6.298;2023-04-09T10:52:32;101072.70;;;13.35;63.26
61488;BME280;47351;53.326;-6.298;2023-04-09T10:55:36;101071.05;;;13.37;63.17
61488;BME280;47351;53.326;-6.298;2023-04-09T10:58:34;101074.52;;;13.35;62.98
61488;BME280;47351;53.326;-6.298;2023-04-09T11:01:30;101066.08;;;13.31;62.58
61488;BME280;47351;53.326;-6.298;2023-04-09T11:04:33;101054.58;;;13.26;62.27
61488;BME280;47351;53.326;-6.298;2023-04-09T11:07:34;101044.09;;;13.25;62.30
61488;BME280;47351;53.326;-6.298;2023-04-09T11:10:25;101030.44;;;13.29;62.29
61488;BME280;47351;53.326;-6.298;2023-04-09T11:13:16;101019.73;;;13.31;62.11
61488;BME280;47351;53.326;-6.298;2023-04-09T11:16:07;101011.60;;;13.34;62.02
61488;BME280;47351;53.326;-6.298;2023-04-09T11:19:01;101013.27;;;13.35;62.13
61488;BME280;47351;53.326;-6.298;2023-04-09T11:22:02;101012.33;;;13.38;62.24
61488;BME280;47351;53.326;-6.298;2023-04-09T11:24:53;101019.08;;;13.39;61.84
61488;BME280;47351;53.326;-6.298;2023-04-09T11:27:44;101010.95;;;13.36;61.70
61488;BME280;47351;53.326;-6.298;2023-04-09T11:30:44;101010.34;;;13.29;61.40
61488;BME280;47351;53.326;-6.298;2023-04-09T11:33:36;101007.86;;;13.23;61.79
61488;BME280;47351;53.326;-6.298;2023-04-09T11:36:26;101006.42;;;13.17;61.67
61488;BME280;47351;53.326;-6.298;2023-04-09T11:39:17;101006.63;;;13.10;61.75
61488;BME280;47351;53.326;-6.298;2023-04-09T11:42:31;100996.41;;;13.04;61.72
61488;BME280;47351;53.326;-6.298;2023-04-09T11:45:34;100993.38;;;13.00;61.81
61488;BME280;47351;53.326;-6.298;2023-04-09T11:48:27;101001.54;;;12.96;61.80
61488;BME280;47351;53.326;-6.298;2023-04-09T11:51:18;101008.73;;;12.89;61.81
61488;BME280;47351;53.326;-6.298;2023-04-09T11:54:09;101009.76;;;12.83;61.92
61488;BME280;47351;53.326;-6.298;2023-04-09T11:57:04;101005.65;;;12.78;61.90
61488;BME280;47351;53.326;-6.298;2023-04-09T11:59:57;101004.66;;;12.75;61.91
61488;BME280;47351;53.326;-6.298;2023-04-09T12:02:59;101010.23;;;12.69;61.90
61488;BME280;47351;53.326;-6.298;2023-04-09T12:05:56;101022.20;;;12.64;62.26
61488;BME280;47351;53.326;-6.298;2023-04-09T12:08:52;101011.35;;;12.62;62.41
61488;BME280;47351;53.326;-6.298;2023-04-09T12:11:43;101000.30;;;12.61;62.58
61488;BME280;47351;53.326;-6.298;2023-04-09T12:14:34;100990.00;;;12.64;62.81
61488;BME280;47351;53.326;-6.298;2023-04-09T12:17:46;100977.80;;;12.67;62.88
61488;BME280;47351;53.326;-6.298;2023-04-09T12:20:58;100978.86;;;12.67;62.98
61488;BME280;47351;53.326;-6.298;2023-04-09T12:23:50;100983.94;;;12.66;63.15
61488;BME280;47351;53.326;-6.298;2023-04-09T12:26:52;100985.23;;;12.64;63.19
61488;BME280;47351;53.326;-6.298;2023-04-09T12:29:47;100994.33;;;12.62;63.34
61488;BME280;47351;53.326;-6.298;2023-04-09T12:32:49;101001.91;;;12.59;63.48
61488;BME280;47351;53.326;-6.298;2023-04-09T12:35:39;101000.02;;;12.57;63.59
61488;BME280;47351;53.326;-6.298;2023-04-09T12:38:39;100980.02;;;12.53;63.63
61488;BME280;47351;53.326;-6.298;2023-04-09T12:41:41;100963.52;;;12.53;63.83
61488;BME280;47351;53.326;-6.298;2023-04-09T12:44:35;100967.95;;;12.55;63.98
61488;BME280;47351;53.326;-6.298;2023-04-09T12:47:47;100961.19;;;12.62;64.01
61488;BME280;47351;53.326;-6.298;2023-04-09T12:50:47;100956.80;;;12.69;63.99
61488;BME280;47351;53.326;-6.298;2023-04-09T12:53:37;100950.04;;;12.75;63.89
61488;BME280;47351;53.326;-6.298;2023-04-09T12:56:39;100939.62;;;12.81;63.78
61488;BME280;47351;53.326;-6.298;2023-04-09T12:59:49;100935.40;;;12.83;63.73
61488;BME280;47351;53.326;-6.298;2023-04-09T13:02:48;100930.89;;;12.87;63.64
61488;BME280;47351;53.326;-6.298;2023-04-09T13:06:01;100930.83;;;12.94;63.67
61488;BME280;47351;53.326;-6.298;2023-04-09T13:08:51;100934.35;;;13.01;63.70
61488;BME280;47351;53.326;-6.298;2023-04-09T13:11:45;100930.08;;;13.09;63.65
61488;BME280;47351;53.326;-6.298;2023-04-09T13:14:49;100934.98;;;13.13;63.82
61488;BME280;47351;53.326;-6.298;2023-04-09T13:17:43;100937.68;;;13.21;63.77
61488;BME280;47351;53.326;-6.298;2023-04-09T13:20:36;100935.83;;;13.30;63.83
61488;BME280;47351;53.326;-6.298;2023-04-09T13:23:33;100932.77;;;13.27;63.88
61488;BME280;47351;53.326;-6.298;2023-04-09T13:26:35;100928.83;;;13.17;64.15
61488;BME280;47351;53.326;-6.298;2023-04-09T13:29:28;100914.52;;;13.12;64.41
61488;BME280;47351;53.326;-6.298;2023-04-09T13:32:22;100907.46;;;13.09;64.80
61488;BME280;47351;53.326;-6.298;2023-04-09T13:35:16;100898.86;;;13.04;65.00
61488;BME280;47351;53.326;-6.298;2023-04-09T13:38:07;100898.88;;;13.01;65.30
61488;BME280;47351;53.326;-6.298;2023-04-09T13:41:08;100879.79;;;13.04;65.46
61488;BME280;47351;53.326;-6.298;2023-04-09T13:44:02;100892.73;;;13.08;65.77
61488;BME280;47351;53.326;-6.298;2023-04-09T13:46:53;100895.10;;;13.06;66.04
61488;BME280;47351;53.326;-6.298;2023-04-09T13:49:46;100902.40;;;12.99;66.04
61488;BME280;47351;53.326;-6.298;2023-04-09T13:52:39;100908.52;;;12.93;66.43
61488;BME280;47351;53.326;-6.298;2023-04-09T13:55:32;100911.14;;;12.87;66.72
61488;BME280;47351;53.326;-6.298;2023-04-09T13:58:38;100892.06;;;12.85;67.16
61488;BME280;47351;53.326;-6.298;2023-04-09T14:01:39;100845.75;;;12.90;67.32
61488;BME280;47351;53.326;-6.298;2023-04-09T14:04:37;100813.75;;;12.94;67.65
61488;BME280;47351;53.326;-6.298;2023-04-09T14:07:30;100802.58;;;12.92;67.86
61488;BME280;47351;53.326;-6.298;2023-04-09T14:10:20;100810.91;;;12.91;67.98
61488;BME280;47351;53.326;-6.298;2023-04-09T14:13:14;100820.01;;;12.93;68.00
61488;BME280;47351;53.326;-6.298;2023-04-09T14:16:08;100836.66;;;13.02;68.03
61488;BME280;47351;53.326;-6.298;2023-04-09T14:19:14;100868.46;;;13.09;67.94
61488;BME280;47351;53.326;-6.298;2023-04-09T14:22:05;100878.44;;;13.09;67.99
61488;BME280;47351;53.326;-6.298;2023-04-09T14:24:57;100872.65;;;13.11;67.98
61488;BME280;47351;53.326;-6.298;2023-04-09T14:28:05;100859.89;;;13.21;67.83
61488;BME280;47351;53.326;-6.298;2023-04-09T14:31:15;100850.02;;;13.42;67.23
61488;BME280;47351;53.326;-6.298;2023-04-09T14:34:09;100845.84;;;13.55;66.62
61488;BME280;47351;53.326;-6.298;2023-04-09T14:37:03;100839.50;;;13.69;66.07
61488;BME280;47351;53.326;-6.298;2023-04-09T14:40:06;100837.84;;;13.80;65.03
61488;BME280;47351;53.326;-6.298;2023-04-09T14:42:57;100834.15;;;13.79;64.70
61488;BME280;47351;53.326;-6.298;2023-04-09T14:45:51;100822.14;;;13.74;64.41
61488;BME280;47351;53.326;-6.298;2023-04-09T14:48:45;100811.77;;;13.75;64.53
61488;BME280;47351;53.326;-6.298;2023-04-09T14:51:39;100809.90;;;13.75;64.54
61488;BME280;47351;53.326;-6.298;2023-04-09T14:54:35;100801.84;;;13.68;64.91
61488;BME280;47351;53.326;-6.298;2023-04-09T14:57:31;100811.96;;;13.60;65.21
61488;BME280;47351;53.326;-6.298;2023-04-09T15:00:25;100813.51;;;13.46;65.78
61488;BME280;47351;53.326;-6.298;2023-04-09T15:03:20;100808.33;;;13.33;66.36
61488;BME280;47351;53.326;-6.298;2023-04-09T15:06:14;100799.71;;;13.27;66.80
61488;BME280;47351;53.326;-6.298;2023-04-09T15:09:05;100801.15;;;13.24;67.14
61488;BME280;47351;53.326;-6.298;2023-04-09T15:12:02;100798.48;;;13.19;67.45
61488;BME280;47351;53.326;-6.298;2023-04-09T15:14:56;100787.99;;;13.16;67.73
61488;BME280;47351;53.326;-6.298;2023-04-09T15:17:46;100779.15;;;13.19;68.00
61488;BME280;47351;53.326;-6.298;2023-04-09T15:20:40;100766.44;;;13.22;68.05
61488;BME280;47351;53.326;-6.298;2023-04-09T15:23:33;100761.56;;;13.22;68.07
61488;BME280;47351;53.326;-6.298;2023-04-09T15:26:25;100766.80;;;13.21;68.37
61488;BME280;47351;53.326;-6.298;2023-04-09T15:29:16;100771.45;;;13.20;68.41
61488;BME280;47351;53.326;-6.298;2023-04-09T15:32:12;100774.15;;;13.17;68.72
61488;BME280;47351;53.326;-6.298;2023-04-09T15:35:12;100773.42;;;13.15;68.92
61488;BME280;47351;53.326;-6.298;2023-04-09T15:38:07;100766.83;;;13.17;69.15
61488;BME280;47351;53.326;-6.298;2023-04-09T15:41:00;100759.83;;;13.20;69.21
61488;BME280;47351;53.326;-6.298;2023-04-09T15:43:55;100758.22;;;13.22;69.32
61488;BME280;47351;53.326;-6.298;2023-04-09T15:46:46;100757.04;;;13.22;69.22
61488;BME280;47351;53.326;-6.298;2023-04-09T15:49:48;100744.45;;;13.34;69.19
61488;BME280;47351;53.326;-6.298;2023-04-09T15:52:41;100729.30;;;13.51;68.64